< < Back
Terminal Aerodrome Forecast


Current Version              Previous Versions:   1  2  3  4  5  6  7  8  9  

Terminal Aerodrome Forecast

186
FTUS44 KOHX 300708 AAA
TAFBNA
TAF AMD
KBNA 300708Z 3007/0106 00000KT P6SM OVC100
     FM300900 10005KT 6SM -SHRA BR OVC060
     FM301000 10005KT P6SM OVC100
     FM301400 13005KT 6SM -SHRA BR BKN050
     FM010000 17006KT P6SM BKN050=

Latest METAR

872
SAUS70 KWBC 300900 RRL
MTRBNA
METAR KBNA 300853Z 00000KT 10SM FEW060 BKN090 OVC150 18/16 A2991 RMK AO2
SLP121 T01830156 57005


USA.gov is the U.S. government's official web portal to all federal, state and local government web resources and services.